Time;durP1;ratioP1;P1;durP2;ratioP2;P2;SDS_P1;SDS_P2;PMS_P1;PMS_P2;Temp;Humidity;BMP_temperature;BMP_pressure;BME280_temperature;BME280_humidity;BME280_pressure;Samples;Min_cycle;Max_cycle;Signal;HPM_P1;HPM_P2
2021/03/05 00:00:49;;;;;;;24.43;10.80;;;4.20;99.90;;;;;;5095805;28;20258;-65
2021/03/05 00:03:15;;;;;;;24.93;9.83;;;4.10;99.90;;;;;;5095185;28;20177;-65
2021/03/05 00:05:42;;;;;;;17.10;9.57;;;4.10;99.90;;;;;;5095331;28;20154;-65
2021/03/05 00:08:09;;;;;;;20.43;9.70;;;4.00;99.90;;;;;;5095035;28;20686;-65
2021/03/05 00:10:38;;;;;;;18.93;10.10;;;4.00;99.90;;;;;;5095009;28;20446;-65
2021/03/05 00:13:04;;;;;;;17.43;8.97;;;4.00;99.90;;;;;;5094992;28;20400;-65
2021/03/05 00:15:32;;;;;;;25.27;8.50;;;4.00;99.90;;;;;;5094678;28;20955;-65
2021/03/05 00:17:58;;;;;;;18.43;8.40;;;4.00;99.90;;;;;;5111972;28;20217;-65
2021/03/05 00:20:27;;;;;;;19.63;8.90;;;4.00;99.90;;;;;;5115603;28;20817;-65
2021/03/05 00:22:54;;;;;;;16.73;8.63;;;4.00;99.90;;;;;;5114052;28;20937;-65
2021/03/05 00:25:20;;;;;;;17.47;8.47;;;3.90;99.90;;;;;;5113828;28;20892;-65
2021/03/05 00:27:45;;;;;;;14.50;8.50;;;3.90;99.90;;;;;;5114757;28;20459;-65
2021/03/05 00:30:12;;;;;;;13.63;8.13;;;3.90;99.90;;;;;;5114999;28;20198;-65
2021/03/05 00:32:37;;;;;;;16.93;8.57;;;3.80;99.90;;;;;;5114939;28;20150;-65
2021/03/05 00:35:06;;;;;;;14.07;9.23;;;3.80;99.90;;;;;;5114173;28;20410;-65
2021/03/05 00:37:32;;;;;;;24.97;8.80;;;3.80;99.90;;;;;;5115000;28;20364;-65
2021/03/05 00:39:57;;;;;;;16.20;9.00;;;3.80;99.90;;;;;;5114910;28;20384;-65
2021/03/05 00:42:23;;;;;;;17.33;7.80;;;3.80;99.90;;;;;;5115011;28;20521;-65
2021/03/05 00:44:48;;;;;;;14.93;8.47;;;3.80;99.90;;;;;;5114726;28;20161;-65
2021/03/05 00:47:14;;;;;;;15.77;8.57;;;3.80;99.90;;;;;;5114475;28;20189;-65
2021/03/05 00:49:39;;;;;;;16.50;9.90;;;3.80;99.90;;;;;;5114593;27;20525;-65
2021/03/05 00:52:05;;;;;;;14.87;8.63;;;3.80;99.90;;;;;;5113871;28;20534;-65
2021/03/05 00:54:31;;;;;;;21.67;8.30;;;3.80;99.90;;;;;;5114781;28;20249;-65
2021/03/05 00:56:57;;;;;;;15.50;9.13;;;3.80;99.90;;;;;;5114447;28;20165;-64
2021/03/05 00:59:22;;;;;;;18.83;9.53;;;3.80;99.90;;;;;;5114539;28;20166;-64
2021/03/05 01:01:48;;;;;;;20.60;9.97;;;3.90;99.90;;;;;;5114544;28;20388;-64
2021/03/05 01:04:14;;;;;;;16.40;7.97;;;3.90;99.90;;;;;;5114501;28;20189;-64
2021/03/05 01:06:39;;;;;;;19.60;9.07;;;3.90;99.90;;;;;;5114588;28;20890;-65
2021/03/05 01:09:05;;;;;;;20.10;8.80;;;4.00;99.90;;;;;;5111913;28;20288;-65
2021/03/05 01:11:31;;;;;;;12.47;8.40;;;4.00;99.90;;;;;;5114407;28;20169;-65
2021/03/05 01:13:56;;;;;;;16.10;9.60;;;4.10;99.90;;;;;;5114197;28;20418;-65
2021/03/05 01:16:22;;;;;;;18.10;9.20;;;4.10;99.90;;;;;;5100215;28;20185;-64
2021/03/05 01:18:48;;;;;;;18.50;8.50;;;4.20;99.90;;;;;;5093951;28;20523;-64
2021/03/05 01:21:13;;;;;;;18.87;9.63;;;4.20;99.90;;;;;;5093746;28;20174;-64
2021/03/05 01:23:39;;;;;;;32.37;11.97;;;4.30;99.90;;;;;;5093737;28;20455;-64
2021/03/05 01:26:07;;;;;;;26.93;13.67;;;4.30;99.90;;;;;;5094199;28;20542;-64
2021/03/05 01:28:32;;;;;;;27.73;13.63;;;4.30;99.90;;;;;;5093498;28;20190;-65
2021/03/05 01:30:58;;;;;;;18.63;11.97;;;4.30;99.90;;;;;;5094077;28;20885;-65
2021/03/05 01:33:23;;;;;;;21.23;11.40;;;4.30;99.90;;;;;;5093495;28;20162;-65
2021/03/05 01:35:49;;;;;;;26.70;13.63;;;4.30;99.90;;;;;;5093312;28;20155;-65
2021/03/05 01:38:14;;;;;;;26.90;12.97;;;4.30;99.90;;;;;;5092938;28;20219;-64
2021/03/05 01:40:43;;;;;;;24.27;13.20;;;4.30;99.90;;;;;;5093273;28;20177;-65
2021/03/05 01:43:10;;;;;;;28.77;14.40;;;4.30;99.90;;;;;;5094489;28;20607;-65
2021/03/05 01:45:37;;;;;;;18.67;13.30;;;4.20;99.90;;;;;;5093364;28;20749;-65
2021/03/05 01:48:09;;;;;;;24.50;14.07;;;4.20;99.90;;;;;;5093143;28;20444;-64
2021/03/05 01:50:47;;;;;;;25.90;15.40;;;4.20;99.90;;;;;;5092090;28;20402;-64
2021/03/05 01:53:13;;;;;;;30.87;16.07;;;4.20;99.90;;;;;;5093141;28;20396;-64
2021/03/05 01:55:38;;;;;;;23.97;15.97;;;4.20;99.90;;;;;;5092999;28;20751;-64
2021/03/05 01:58:04;;;;;;;28.73;16.97;;;4.30;99.90;;;;;;5093804;28;20661;-64
2021/03/05 02:00:51;;;;;;;31.40;16.80;;;4.30;99.90;;;;;;5093183;28;20238;-64
2021/03/05 02:03:17;;;;;;;30.77;16.93;;;4.30;99.90;;;;;;5091914;28;20181;-64
2021/03/05 02:05:43;;;;;;;31.23;16.70;;;4.20;99.90;;;;;;5093046;28;20400;-65
2021/03/05 02:08:11;;;;;;;26.40;18.00;;;4.20;99.90;;;;;;5092731;28;20666;-65
2021/03/05 02:10:37;;;;;;;32.13;19.97;;;4.20;99.90;;;;;;5093150;28;20393;-65
2021/03/05 02:13:03;;;;;;;34.10;21.67;;;4.20;99.90;;;;;;5093137;28;20389;-65
2021/03/05 02:15:31;;;;;;;37.93;23.03;;;4.20;99.90;;;;;;5097565;28;20194;-65
2021/03/05 02:21:18;;;;;;;32.17;23.97;;;4.20;99.90;;;;;;5110898;27;20500;-65
2021/03/05 02:32:42;;;;;;;37.30;22.90;;;4.20;99.90;;;;;;5084258;27;20516;-64
2021/03/05 02:35:09;;;;;;;32.50;23.13;;;4.30;99.90;;;;;;5070225;28;20413;-64
2021/03/05 02:37:38;;;;;;;29.13;22.80;;;4.30;99.90;;;;;;5070470;28;20893;-64
2021/03/05 02:43:01;;;;;;;34.57;21.50;;;4.30;99.90;;;;;;5194167;27;20534;-65
2021/03/05 02:45:29;;;;;;;36.03;22.07;;;4.30;99.90;;;;;;5170141;27;20393;-64
2021/03/05 02:48:01;;;;;;;34.07;23.40;;;4.20;99.90;;;;;;5133660;27;20386;-64
2021/03/05 02:50:29;;;;;;;38.43;25.30;;;4.20;99.90;;;;;;5151964;27;20410;-64
2021/03/05 02:52:57;;;;;;;36.43;24.30;;;4.20;99.90;;;;;;5133654;27;20394;-64
2021/03/05 02:55:25;;;;;;;34.77;24.07;;;4.20;99.90;;;;;;5151908;27;20398;-64
2021/03/05 02:57:55;;;;;;;33.30;23.80;;;4.20;99.90;;;;;;5151782;27;20406;-64
2021/03/05 03:00:23;;;;;;;27.27;20.60;;;4.20;99.90;;;;;;5133067;27;20796;-64
2021/03/05 03:02:49;;;;;;;32.70;23.00;;;4.10;99.90;;;;;;5151575;27;20404;-64
2021/03/05 03:05:15;;;;;;;28.63;22.23;;;4.10;99.90;;;;;;5151569;27;20390;-64
2021/03/05 03:07:41;;;;;;;31.97;22.03;;;4.10;99.90;;;;;;5151336;27;20410;-64
2021/03/05 03:10:10;;;;;;;35.03;23.70;;;4.10;99.90;;;;;;5133563;27;20409;-65
2021/03/05 03:12:37;;;;;;;32.57;23.63;;;4.10;99.90;;;;;;5151419;27;20550;-65
2021/03/05 03:15:09;;;;;;;28.40;21.97;;;4.10;99.90;;;;;;5151311;27;20936;-65
2021/03/05 03:17:38;;;;;;;29.10;21.37;;;4.10;99.90;;;;;;5151441;27;20890;-65
2021/03/05 03:20:05;;;;;;;29.67;21.97;;;4.10;99.90;;;;;;5151205;27;20802;-65
2021/03/05 03:22:31;;;;;;;32.30;24.70;;;4.10;99.90;;;;;;5151057;27;20449;-65
2021/03/05 03:24:56;;;;;;;26.70;20.87;;;4.10;99.90;;;;;;5151448;27;20814;-65
2021/03/05 03:27:22;;;;;;;30.33;21.73;;;4.10;99.90;;;;;;5151215;27;20191;-65
2021/03/05 03:29:47;;;;;;;26.67;20.70;;;4.10;99.90;;;;;;5151160;27;20153;-65
2021/03/05 03:32:13;;;;;;;27.33;21.77;;;4.10;99.90;;;;;;5151095;27;20168;-65
2021/03/05 03:34:41;;;;;;;28.43;23.27;;;4.10;99.90;;;;;;5132481;27;20165;-66
2021/03/05 03:37:07;;;;;;;30.40;23.67;;;4.10;99.90;;;;;;5150945;27;20897;-66
2021/03/05 03:39:34;;;;;;;28.60;21.70;;;4.10;99.90;;;;;;5132901;27;20394;-65
2021/03/05 03:42:00;;;;;;;27.63;21.93;;;4.10;99.90;;;;;;5151008;27;20556;-65
2021/03/05 03:44:26;;;;;;;26.93;20.87;;;4.10;99.90;;;;;;5132425;27;20461;-66
2021/03/05 03:46:52;;;;;;;24.10;19.47;;;4.10;99.90;;;;;;5150676;27;20430;-65
2021/03/05 03:49:31;;;;;;;22.93;19.50;;;4.10;99.90;;;;;;5150764;27;20157;-65
2021/03/05 03:52:01;;;;;;;25.47;19.67;;;4.10;99.90;;;;;;5149377;27;20408;-65
2021/03/05 03:54:29;;;;;;;21.17;17.33;;;4.10;99.90;;;;;;5136628;27;20409;-65
2021/03/05 03:56:59;;;;;;;20.50;16.90;;;4.10;99.90;;;;;;5136513;27;20406;-65
2021/03/05 03:59:26;;;;;;;24.03;18.23;;;4.00;99.90;;;;;;5136805;27;20447;-65
2021/03/05 04:01:55;;;;;;;24.73;18.00;;;4.00;99.90;;;;;;5136588;27;20449;-65
2021/03/05 04:04:22;;;;;;;19.53;17.43;;;4.00;99.90;;;;;;5136529;27;20387;-65
2021/03/05 04:06:50;;;;;;;20.70;16.27;;;4.00;99.90;;;;;;5136466;27;20436;-66
2021/03/05 04:09:17;;;;;;;21.30;16.67;;;4.00;99.90;;;;;;5136816;27;20780;-65
2021/03/05 04:11:43;;;;;;;21.37;16.80;;;4.00;99.90;;;;;;5118302;27;20403;-65
2021/03/05 04:14:09;;;;;;;21.47;18.70;;;4.00;99.90;;;;;;5118249;27;20944;-66
2021/03/05 04:16:35;;;;;;;22.50;17.60;;;4.00;99.90;;;;;;5136216;27;20604;-66
2021/03/05 04:19:01;;;;;;;22.47;18.73;;;4.00;99.90;;;;;;5136510;27;20436;-66
2021/03/05 04:21:29;;;;;;;19.80;17.70;;;4.00;99.90;;;;;;5117965;27;20518;-66
2021/03/05 04:23:55;;;;;;;23.53;18.50;;;4.00;99.90;;;;;;5136356;27;20879;-65
2021/03/05 04:26:21;;;;;;;22.60;18.03;;;4.00;99.90;;;;;;5136226;27;20447;-65
2021/03/05 04:28:46;;;;;;;21.03;16.90;;;4.00;99.90;;;;;;5136229;27;20161;-65
2021/03/05 04:31:12;;;;;;;19.60;17.57;;;4.00;99.90;;;;;;5136213;27;20686;-65
2021/03/05 04:33:38;;;;;;;23.30;19.50;;;4.00;99.90;;;;;;5117642;27;20690;-66
2021/03/05 04:36:05;;;;;;;22.07;18.73;;;4.00;99.90;;;;;;5135919;27;20161;-66
2021/03/05 04:38:31;;;;;;;22.87;17.27;;;4.00;99.90;;;;;;5136339;27;20164;-66
2021/03/05 04:40:57;;;;;;;21.13;17.80;;;4.00;99.90;;;;;;5135828;27;20462;-66
2021/03/05 04:43:23;;;;;;;26.97;17.80;;;4.00;99.90;;;;;;5136036;27;20154;-66
2021/03/05 04:45:48;;;;;;;21.40;16.67;;;4.00;99.90;;;;;;5135779;27;20433;-66
2021/03/05 04:48:14;;;;;;;18.43;15.63;;;3.90;99.90;;;;;;5117485;27;20173;-65
2021/03/05 04:50:39;;;;;;;21.13;17.00;;;3.90;99.90;;;;;;5135943;27;20199;-65
2021/03/05 04:53:05;;;;;;;18.40;15.70;;;3.90;99.90;;;;;;5117459;27;20517;-66
2021/03/05 04:55:31;;;;;;;16.90;15.03;;;3.90;99.90;;;;;;5135675;27;20165;-66
2021/03/05 04:57:57;;;;;;;21.57;16.60;;;3.90;99.90;;;;;;5135480;27;20383;-65
2021/03/05 05:00:23;;;;;;;18.60;16.60;;;3.90;99.90;;;;;;5135469;27;20398;-65
2021/03/05 05:02:49;;;;;;;18.77;15.80;;;3.90;99.90;;;;;;5135542;27;20150;-65
2021/03/05 05:05:15;;;;;;;19.30;16.00;;;3.90;99.90;;;;;;5134363;27;20395;-65
2021/03/05 05:07:41;;;;;;;18.63;14.53;;;3.90;99.90;;;;;;5135583;27;20165;-65
2021/03/05 05:10:08;;;;;;;16.67;13.60;;;3.90;99.90;;;;;;5135288;27;20951;-65
2021/03/05 05:12:34;;;;;;;16.50;14.80;;;3.80;99.90;;;;;;5116786;27;20612;-66
2021/03/05 05:14:59;;;;;;;17.30;14.53;;;3.80;99.90;;;;;;5105928;28;20498;-66
2021/03/05 05:17:25;;;;;;;16.40;13.27;;;3.80;99.90;;;;;;5114550;28;20207;-65
2021/03/05 05:19:50;;;;;;;15.63;13.40;;;3.80;99.90;;;;;;5114885;28;20351;-65
2021/03/05 05:22:16;;;;;;;16.33;13.80;;;3.70;99.90;;;;;;5101134;27;20556;-65
2021/03/05 05:24:41;;;;;;;13.23;11.57;;;3.70;99.90;;;;;;5135089;27;20801;-65
2021/03/05 05:27:07;;;;;;;12.37;11.17;;;3.70;99.90;;;;;;5134961;27;20233;-66
2021/03/05 05:29:32;;;;;;;16.53;10.50;;;3.70;99.90;;;;;;5134895;27;20157;-66
2021/03/05 05:31:58;;;;;;;10.67;9.50;;;3.60;99.90;;;;;;5134859;27;20203;-65
2021/03/05 05:34:24;;;;;;;11.27;9.10;;;3.50;99.90;;;;;;5134914;27;20233;-65
2021/03/05 05:36:49;;;;;;;10.57;9.33;;;3.50;99.90;;;;;;5134660;27;20168;-66
2021/03/05 05:39:15;;;;;;;11.10;9.30;;;3.50;99.90;;;;;;5134452;27;20540;-66
2021/03/05 05:41:41;;;;;;;14.23;10.50;;;3.50;99.90;;;;;;5134492;27;20581;-65
2021/03/05 05:44:08;;;;;;;10.70;9.53;;;3.50;99.90;;;;;;5134646;27;20552;-66
2021/03/05 05:46:34;;;;;;;14.40;10.17;;;3.40;99.90;;;;;;5116446;27;20509;-65
2021/03/05 05:49:01;;;;;;;11.90;10.27;;;3.40;99.90;;;;;;5116398;27;20386;-65
2021/03/05 05:51:29;;;;;;;14.90;9.43;;;3.40;99.90;;;;;;5134562;27;20427;-65
2021/03/05 05:54:02;;;;;;;9.20;7.40;;;3.40;99.90;;;;;;5134673;27;20394;-65
2021/03/05 05:56:28;;;;;;;11.00;8.83;;;3.40;99.90;;;;;;5115821;27;20456;-65
2021/03/05 05:58:54;;;;;;;10.20;7.40;;;3.40;99.90;;;;;;5134431;27;20910;-65
2021/03/05 06:01:19;;;;;;;11.57;7.80;;;3.30;99.90;;;;;;5134626;27;20944;-65
2021/03/05 06:03:45;;;;;;;9.60;6.90;;;3.30;99.90;;;;;;5134601;27;20393;-65
2021/03/05 06:06:12;;;;;;;7.40;5.70;;;3.30;99.90;;;;;;5134424;27;20159;-66
2021/03/05 06:08:38;;;;;;;7.03;6.20;;;3.30;99.90;;;;;;5134542;27;20149;-66
2021/03/05 06:11:03;;;;;;;8.20;6.43;;;3.20;99.90;;;;;;5134553;27;20406;-66
2021/03/05 06:13:29;;;;;;;6.87;6.17;;;3.20;99.90;;;;;;5134142;27;20656;-66
2021/03/05 06:18:47;;;;;;;9.13;5.03;;;3.10;99.90;;;;;;5111115;27;20512;-66
2021/03/05 06:21:13;;;;;;;7.47;4.90;;;3.00;99.90;;;;;;5110902;28;20396;-65
2021/03/05 06:23:59;;;;;;;6.00;4.73;;;2.90;99.90;;;;;;5110969;28;20162;-66
2021/03/05 06:26:25;;;;;;;6.53;4.53;;;2.80;99.90;;;;;;5109904;28;20470;-66
2021/03/05 06:29:07;;;;;;;7.13;5.13;;;2.70;99.90;;;;;;5109928;28;20387;-66
2021/03/05 06:31:34;;;;;;;6.03;4.27;;;2.60;99.90;;;;;;5095807;28;20431;-66
2021/03/05 06:34:00;;;;;;;5.60;4.67;;;2.50;99.90;;;;;;5090433;28;20377;-66
2021/03/05 06:36:26;;;;;;;5.97;4.27;;;2.40;99.90;;;;;;5090078;28;20388;-66
2021/03/05 06:38:52;;;;;;;6.60;5.17;;;2.30;99.90;;;;;;5090066;28;20393;-66
2021/03/05 06:41:23;;;;;;;5.03;4.20;;;2.30;99.90;;;;;;5090377;28;20765;-66
2021/03/05 06:43:52;;;;;;;8.00;4.80;;;2.20;99.90;;;;;;5090388;28;20948;-66
2021/03/05 06:46:34;;;;;;;4.87;4.10;;;2.10;99.90;;;;;;5090249;28;20435;-66
2021/03/05 06:49:03;;;;;;;5.20;4.67;;;2.10;99.90;;;;;;5090517;28;20415;-66
2021/03/05 06:51:29;;;;;;;6.47;5.67;;;2.00;99.90;;;;;;5089939;28;20410;-66
2021/03/05 06:54:04;;;;;;;4.73;4.23;;;2.00;99.90;;;;;;5090309;28;20400;-66
2021/03/05 06:56:31;;;;;;;9.50;4.70;;;2.00;99.90;;;;;;5090097;28;20169;-66
2021/03/05 07:04:29;;;;;;;8.37;4.50;;;2.00;99.90;;;;;;5104981;27;20509;-65
2021/03/05 07:09:42;;;;;;;4.77;4.27;;;2.10;99.90;;;;;;5131552;27;20514;-66
2021/03/05 07:14:48;;;;;;;6.07;3.63;;;2.10;99.90;;;;;;5110592;27;20849;-66
2021/03/05 07:17:14;;;;;;;4.80;3.77;;;2.30;99.90;;;;;;5110959;28;20385;-66
2021/03/05 07:19:40;;;;;;;4.23;3.80;;;2.30;99.90;;;;;;5110888;28;20873;-66
2021/03/05 07:22:08;;;;;;;7.43;4.70;;;2.30;99.90;;;;;;5098340;28;20408;-66
2021/03/05 07:24:39;;;;;;;5.70;4.10;;;2.30;99.90;;;;;;5090653;28;20166;-66
2021/03/05 07:27:07;;;;;;;7.63;4.93;;;2.20;99.90;;;;;;5090526;28;20380;-66
2021/03/05 07:37:49;;;;;;;5.73;5.23;;;2.20;99.90;;;;;;5131272;27;20545;-66
2021/03/05 07:40:16;;;;;;;4.97;4.27;;;2.30;99.90;;;;;;5111438;28;20474;-66
2021/03/05 07:42:43;;;;;;;9.40;3.90;;;2.30;99.90;;;;;;5111160;28;20383;-66
2021/03/05 07:45:11;;;;;;;6.37;4.03;;;2.20;99.90;;;;;;5111015;28;20417;-66
2021/03/05 07:47:41;;;;;;;9.70;4.87;;;2.20;99.90;;;;;;5110937;28;20470;-66
2021/03/05 07:50:09;;;;;;;10.43;4.17;;;2.20;99.90;;;;;;5110652;28;20425;-66
2021/03/05 07:52:35;;;;;;;6.57;4.60;;;2.20;99.90;;;;;;5110704;28;20386;-66
2021/03/05 07:55:01;;;;;;;9.63;5.00;;;2.20;99.90;;;;;;5110272;28;20382;-66
2021/03/05 08:00:07;;;;;;;6.57;5.30;;;2.20;99.90;;;;;;5110892;27;20565;-66
2021/03/05 08:02:55;;;;;;;5.77;4.83;;;2.20;99.90;;;;;;5110907;28;20395;-66
2021/03/05 08:05:39;;;;;;;10.80;6.10;;;2.30;99.90;;;;;;5092860;28;20414;-66
2021/03/05 08:08:25;;;;;;;14.53;6.03;;;2.30;99.90;;;;;;5111132;28;20383;-66
2021/03/05 08:11:00;;;;;;;12.13;7.30;;;2.40;99.90;;;;;;5096379;28;20376;-66
2021/03/05 08:24:39;;;;;;;11.97;8.50;;;2.80;99.90;;;;;;5111534;27;20501;-65
2021/03/05 08:30:09;;;;;;;9.60;8.50;;;3.10;99.90;;;;;;5123720;27;20519;-66
2021/03/05 08:35:14;;;;;;;9.83;8.17;;;3.40;99.90;;;;;;5111063;27;20521;-65
2021/03/05 08:40:51;;;;;;;11.03;9.07;;;3.40;99.90;;;;;;5111104;27;20543;-65
2021/03/05 08:43:20;;;;;;;15.70;10.30;;;3.50;99.90;;;;;;5111108;28;20417;-66
2021/03/05 08:51:20;;;;;;;11.87;8.07;;;3.60;99.90;;;;;;5111110;27;20506;-66
2021/03/05 08:59:05;;;;;;;10.33;9.33;;;3.60;99.90;;;;;;5110915;27;21033;-65
2021/03/05 09:01:37;;;;;;;13.60;9.47;;;3.60;99.90;;;;;;5110978;28;20398;-66
2021/03/05 09:04:13;;;;;;;10.90;9.37;;;3.80;99.90;;;;;;5099882;28;20889;-66
2021/03/05 09:06:47;;;;;;;8.80;8.00;;;3.80;99.90;;;;;;5090972;28;20396;-66
2021/03/05 09:09:13;;;;;;;9.60;8.70;;;3.80;99.90;;;;;;5090435;28;20385;-66
2021/03/05 09:11:39;;;;;;;11.30;8.93;;;3.70;99.90;;;;;;5089378;28;20401;-66
2021/03/05 09:14:22;;;;;;;8.70;7.90;;;3.60;99.90;;;;;;5109075;28;20404;-66
2021/03/05 09:17:05;;;;;;;10.33;8.60;;;3.40;99.90;;;;;;5110611;28;20181;-66
2021/03/05 09:19:38;;;;;;;10.57;9.50;;;3.30;99.90;;;;;;5110717;28;20407;-66
2021/03/05 09:22:07;;;;;;;10.20;8.10;;;3.30;99.90;;;;;;5109962;28;20464;-65
2021/03/05 09:30:25;;;;;;;9.90;8.00;;;3.20;99.90;;;;;;5110886;27;20531;-66
2021/03/05 09:35:29;;;;;;;10.97;9.17;;;3.20;99.90;;;;;;5112020;27;20505;-66
2021/03/05 09:37:55;;;;;;;10.87;9.13;;;3.10;99.90;;;;;;5099706;28;20594;-66
2021/03/05 09:40:23;;;;;;;10.13;8.57;;;3.10;99.90;;;;;;5089270;28;20396;-66
2021/03/05 09:42:52;;;;;;;10.73;9.73;;;3.10;99.90;;;;;;5090534;28;20440;-66
2021/03/05 09:45:42;;;;;;;9.47;8.57;;;3.10;99.90;;;;;;5090553;28;20392;-66
2021/03/05 09:48:10;;;;;;;8.77;7.93;;;3.10;99.90;;;;;;5089587;28;20454;-65
2021/03/05 09:50:37;;;;;;;12.93;9.60;;;3.20;99.90;;;;;;5090776;28;20416;-65
2021/03/05 09:53:20;;;;;;;10.37;7.83;;;3.30;99.90;;;;;;5088768;28;20471;-65
2021/03/05 09:55:50;;;;;;;9.77;8.40;;;3.40;99.90;;;;;;5089635;28;20404;-67
2021/03/05 09:58:15;;;;;;;8.37;6.53;;;3.60;99.90;;;;;;5090290;28;20389;-67
2021/03/05 10:00:41;;;;;;;7.60;6.80;;;3.60;99.90;;;;;;5090376;28;20400;-67
2021/03/05 10:03:09;;;;;;;9.90;7.80;;;3.50;99.90;;;;;;5090664;28;20631;-67
2021/03/05 10:05:38;;;;;;;8.17;6.57;;;3.50;99.90;;;;;;5090173;28;20147;-67
2021/03/05 10:11:07;;;;;;;7.67;6.97;;;3.50;99.90;;;;;;5131020;27;20519;-66
2021/03/05 10:13:52;;;;;;;8.70;7.80;;;3.70;99.90;;;;;;5110906;28;20717;-66
2021/03/05 10:21:44;;;;;;;8.77;7.33;;;4.10;99.90;;;;;;5102405;27;20530;-67
2021/03/05 10:24:12;;;;;;;11.47;9.17;;;4.10;99.90;;;;;;5094589;28;20803;-66
2021/03/05 10:27:10;;;;;;;11.30;7.70;;;4.20;99.90;;;;;;5090541;28;20451;-66
2021/03/05 10:29:24;;;;;;;7.27;6.40;;;4.30;99.90;;;;;;5089249;28;20427;-66
2021/03/05 10:31:51;;;;;;;7.87;6.70;;;4.30;99.90;;;;;;5090914;28;20398;-66
2021/03/05 10:34:20;;;;;;;9.03;6.67;;;4.40;99.90;;;;;;5090358;28;20209;-66
2021/03/05 10:36:45;;;;;;;6.73;6.03;;;4.50;99.90;;;;;;5090427;28;20396;-66
2021/03/05 10:39:11;;;;;;;8.03;6.53;;;4.60;99.90;;;;;;5090342;28;20385;-66
2021/03/05 10:41:37;;;;;;;9.27;6.77;;;4.70;99.90;;;;;;5090154;28;20659;-66
2021/03/05 10:44:03;;;;;;;9.57;7.10;;;4.70;99.90;;;;;;5090214;28;20162;-66
2021/03/05 10:46:29;;;;;;;9.17;6.70;;;4.80;99.90;;;;;;5090279;28;20425;-66
2021/03/05 10:48:54;;;;;;;8.60;6.87;;;4.60;99.90;;;;;;5089985;28;20259;-66
2021/03/05 10:51:20;;;;;;;7.53;6.60;;;4.60;99.90;;;;;;5090092;28;20527;-66
2021/03/05 10:53:45;;;;;;;8.50;7.70;;;4.60;99.90;;;;;;5090224;28;20164;-66
2021/03/05 10:56:11;;;;;;;8.40;7.50;;;4.60;99.90;;;;;;5089829;28;20162;-66
2021/03/05 10:58:36;;;;;;;8.17;6.30;;;4.50;99.90;;;;;;5090039;28;20162;-66
2021/03/05 11:01:02;;;;;;;8.43;6.93;;;4.50;99.90;;;;;;5090316;28;20186;-66
2021/03/05 11:03:27;;;;;;;8.47;7.27;;;4.50;99.90;;;;;;5089520;28;20179;-66
2021/03/05 11:05:53;;;;;;;10.40;7.63;;;4.50;99.90;;;;;;5089834;28;20261;-66
2021/03/05 11:08:19;;;;;;;7.93;6.80;;;4.60;99.90;;;;;;5089654;28;20158;-66
2021/03/05 11:10:45;;;;;;;8.20;6.37;;;4.70;99.90;;;;;;5089484;28;20151;-66
2021/03/05 11:13:11;;;;;;;7.83;6.17;;;4.50;99.90;;;;;;5089800;28;20400;-66
2021/03/05 11:15:37;;;;;;;7.97;7.10;;;4.40;99.90;;;;;;5090038;28;20443;-66
2021/03/05 11:18:02;;;;;;;10.73;7.23;;;4.40;99.90;;;;;;5089650;28;20238;-66
2021/03/05 11:20:28;;;;;;;12.30;7.00;;;4.50;99.90;;;;;;5089087;28;20207;-66
2021/03/05 11:22:53;;;;;;;6.80;6.20;;;4.60;99.90;;;;;;5089638;28;20269;-66
2021/03/05 11:25:19;;;;;;;7.70;6.37;;;4.80;99.90;;;;;;5089676;28;20560;-66
2021/03/05 11:27:45;;;;;;;11.50;8.20;;;5.00;99.90;;;;;;5089621;28;20155;-66
2021/03/05 11:30:11;;;;;;;6.73;6.07;;;5.10;99.90;;;;;;5088342;28;20171;-66
2021/03/05 11:32:36;;;;;;;9.70;6.67;;;5.20;99.90;;;;;;5078292;28;20234;-66
2021/03/05 11:35:03;;;;;;;8.03;5.70;;;5.30;99.90;;;;;;5075651;28;20390;-66
2021/03/05 11:37:30;;;;;;;6.67;5.30;;;5.30;99.90;;;;;;5074658;28;20191;-66
2021/03/05 11:39:56;;;;;;;5.37;4.60;;;5.20;99.90;;;;;;5075630;28;20437;-66
2021/03/05 11:42:23;;;;;;;7.53;5.83;;;5.10;99.90;;;;;;5074864;28;20883;-66
2021/03/05 11:44:49;;;;;;;10.10;5.93;;;4.90;99.90;;;;;;5074674;28;20392;-66
2021/03/05 11:47:15;;;;;;;7.07;4.77;;;4.60;99.90;;;;;;5075455;28;20430;-66
2021/03/05 11:49:41;;;;;;;6.90;5.03;;;4.40;99.90;;;;;;5075392;28;20163;-66
2021/03/05 11:52:07;;;;;;;7.83;4.30;;;4.30;99.90;;;;;;5074681;28;20397;-66
2021/03/05 11:54:32;;;;;;;7.30;5.40;;;4.20;99.90;;;;;;5075654;28;20475;-66
2021/03/05 11:56:58;;;;;;;5.70;4.30;;;4.10;99.90;;;;;;5090300;28;20239;-66
2021/03/05 11:59:23;;;;;;;5.17;4.30;;;4.20;99.90;;;;;;5094669;28;20211;-66
2021/03/05 12:01:49;;;;;;;9.40;4.87;;;4.40;99.90;;;;;;5094503;28;20147;-66
2021/03/05 12:04:14;;;;;;;6.63;4.70;;;4.60;99.90;;;;;;5094559;28;20155;-66
2021/03/05 12:06:40;;;;;;;6.73;4.17;;;4.80;99.90;;;;;;5094785;28;20538;-66
2021/03/05 12:09:06;;;;;;;12.07;7.10;;;4.90;99.90;;;;;;5094916;28;20182;-66
2021/03/05 12:11:31;;;;;;;6.33;3.70;;;4.90;99.90;;;;;;5079233;28;20171;-66
2021/03/05 12:13:57;;;;;;;5.00;4.43;;;4.80;99.90;;;;;;5075298;28;20171;-66
2021/03/05 12:16:23;;;;;;;5.00;4.60;;;4.70;99.90;;;;;;5074963;28;20160;-66
2021/03/05 12:18:48;;;;;;;4.90;4.30;;;4.60;99.90;;;;;;5075342;28;20201;-66
2021/03/05 12:21:14;;;;;;;5.33;4.33;;;4.60;99.90;;;;;;5074736;28;20868;-66
2021/03/05 12:23:40;;;;;;;8.03;4.73;;;4.60;99.90;;;;;;5073660;28;20209;-66
2021/03/05 12:26:05;;;;;;;5.97;5.23;;;4.70;99.90;;;;;;5075263;28;20533;-66
2021/03/05 12:28:31;;;;;;;7.03;5.63;;;4.70;99.90;;;;;;5074576;28;20175;-66
2021/03/05 12:30:57;;;;;;;5.87;5.13;;;4.70;99.90;;;;;;5074684;28;20163;-66
2021/03/05 12:33:22;;;;;;;5.60;5.10;;;4.70;99.90;;;;;;5074695;28;20488;-66
2021/03/05 12:35:48;;;;;;;7.20;5.33;;;4.80;99.90;;;;;;5074520;28;20596;-66
2021/03/05 12:38:13;;;;;;;4.70;4.20;;;4.80;99.90;;;;;;5074429;28;20558;-66
2021/03/05 12:40:39;;;;;;;6.23;3.90;;;4.90;99.90;;;;;;5074885;28;20179;-66
2021/03/05 12:43:05;;;;;;;6.77;4.03;;;4.80;99.90;;;;;;5073614;28;20156;-66
2021/03/05 12:45:30;;;;;;;10.80;4.20;;;4.80;99.90;;;;;;5074173;28;20203;-66
2021/03/05 12:47:56;;;;;;;4.43;4.03;;;4.70;99.90;;;;;;5074310;28;20400;-66
2021/03/05 12:50:21;;;;;;;4.10;2.60;;;4.70;99.90;;;;;;5074151;28;20185;-66
2021/03/05 12:52:47;;;;;;;5.50;2.90;;;4.60;98.00;;;;;;5074443;28;20285;-66
2021/03/05 12:55:13;;;;;;;3.30;2.40;;;4.60;98.10;;;;;;5074509;28;20170;-66
2021/03/05 12:57:38;;;;;;;5.30;2.90;;;4.50;97.90;;;;;;5073026;28;20272;-66
2021/03/05 13:00:05;;;;;;;4.77;2.13;;;4.50;95.10;;;;;;5073995;28;20441;-66
2021/03/05 13:02:31;;;;;;;2.47;2.23;;;4.50;93.20;;;;;;5074011;28;20549;-66
2021/03/05 13:04:56;;;;;;;2.27;2.07;;;4.50;92.30;;;;;;5073989;28;20396;-66
2021/03/05 13:07:22;;;;;;;3.50;1.93;;;4.50;91.40;;;;;;5074420;28;20174;-66
2021/03/05 13:09:47;;;;;;;7.90;2.97;;;4.50;92.00;;;;;;5074023;28;20632;-66
2021/03/05 13:12:13;;;;;;;4.17;2.33;;;4.50;91.80;;;;;;5073911;28;20167;-66
2021/03/05 13:14:38;;;;;;;6.30;1.77;;;4.50;92.30;;;;;;5073816;28;20171;-66
2021/03/05 13:17:04;;;;;;;2.80;1.60;;;4.50;90.90;;;;;;5073900;28;20170;-66
2021/03/05 13:19:30;;;;;;;3.17;2.20;;;4.50;92.00;;;;;;5073431;28;20595;-66
2021/03/05 13:21:55;;;;;;;3.53;1.87;;;4.50;91.60;;;;;;5073971;28;20397;-66
2021/03/05 13:24:21;;;;;;;2.43;1.87;;;4.50;91.80;;;;;;5073766;28;20159;-66
2021/03/05 13:26:48;;;;;;;2.17;1.60;;;4.50;87.00;;;;;;5073935;28;20246;-66
2021/03/05 13:29:15;;;;;;;1.90;1.70;;;4.50;81.60;;;;;;5073555;28;20193;-66
2021/03/05 13:31:41;;;;;;;2.33;1.40;;;4.50;83.80;;;;;;5072411;28;20492;-66
2021/03/05 13:34:06;;;;;;;2.23;1.90;;;4.50;81.60;;;;;;5073534;28;20492;-66
2021/03/05 13:36:31;;;;;;;1.87;1.77;;;4.50;81.70;;;;;;5074116;28;20587;-66
2021/03/05 13:38:57;;;;;;;2.50;1.93;;;4.50;83.50;;;;;;5073469;28;20167;-66
2021/03/05 13:41:23;;;;;;;2.80;1.83;;;4.50;88.00;;;;;;5073509;28;20191;-66
2021/03/05 13:43:48;;;;;;;3.10;2.57;;;4.50;90.10;;;;;;5073581;28;20159;-66
2021/03/05 13:46:14;;;;;;;1.87;1.67;;;4.50;89.70;;;;;;5073461;28;20191;-66
2021/03/05 13:48:41;;;;;;;2.63;1.53;;;4.50;90.20;;;;;;5073306;28;20163;-66
2021/03/05 13:51:07;;;;;;;2.93;1.87;;;4.60;87.90;;;;;;5073708;28;20619;-66
2021/03/05 13:53:33;;;;;;;2.30;1.83;;;4.60;86.80;;;;;;5073237;28;20492;-66
2021/03/05 13:55:58;;;;;;;2.90;2.03;;;4.60;85.70;;;;;;5072975;28;20425;-66
2021/03/05 13:58:24;;;;;;;4.10;1.90;;;4.60;85.20;;;;;;5073160;28;20163;-66
2021/03/05 14:00:49;;;;;;;2.63;1.80;;;4.60;86.40;;;;;;5073183;28;20702;-66
2021/03/05 14:03:15;;;;;;;3.70;2.20;;;4.50;87.70;;;;;;5073225;28;20190;-66
2021/03/05 14:05:40;;;;;;;3.90;2.27;;;4.50;86.60;;;;;;5073540;28;20162;-66
2021/03/05 14:08:06;;;;;;;2.70;2.10;;;4.50;86.70;;;;;;5073082;28;20155;-66
2021/03/05 14:10:32;;;;;;;2.37;2.17;;;4.60;84.10;;;;;;5073152;28;20170;-66
2021/03/05 14:12:57;;;;;;;2.10;1.90;;;4.60;85.30;;;;;;5072898;28;20205;-66
2021/03/05 14:15:23;;;;;;;2.73;1.90;;;4.60;86.30;;;;;;5072888;28;20179;-66